In Rescue
 
Open Full Screen Window  High Contrast Mode
Wind Gusting 23 knots
16
July 13, 2020 9:44 AM CDT
Weather Information
Wind Direction
  120 °
Wind Speed
  16 kt (18 mph)
Wind Gust
  23 kt (26 mph)
Variable Wind
100°
170°
Altimeter
29.82 in
Visibility
10 SM
Temperature
23° C
73° F
Dewpoint
18° C
64° F
Humidity
74%
1hr Rain Fall
00.00 in.
24hr Rain Fall
00.00 in.
Sky Condition
Clear
VFR

METAR KY63 131444Z AUTO 12016G23KT 100V170 10SM CLR 23/18 A2982 RMK AO2 T02320180

FAA Disclaimer: The data displayed is for advisory purposes only and is not to be used for flight planning or operations.